Abercrombie, North Dakota
Current Conditions -  °F | °C
As of 3:35 PM on Thursday 23 Oct 2014 (Local Time) from KBWP Reporting Station
Clear Clear  
Wind Chill: 21°   Ceiling: Unl
Heat Index: 21°   Visibility: 10mi
Dew Point: -1°   Wind: 14mph
Humidity: 23%   Direction: 240°WSW
Pressure: 29.87"   Gusts: NA
Location:  46.45°N, 96.73°W
Report Text: KBWP 232035Z AUTO 24012KT 10SM CLR 21/M01 A2987 RMK AO1
Loading
Personal Weather Stations






























Interactive Weather Map
Tropical Storm Tracking
New forecast layout! Learn more

10-Day Weather Forecast

Advertisements
Track Severe Weather on mobile